Time;durP1;ratioP1;P1;durP2;ratioP2;P2;SDS_P1;SDS_P2;PMS_P1;PMS_P2;Temp;Humidity;BMP_temperature;BMP_pressure;BME280_temperature;BME280_humidity;BME280_pressure;Samples;Min_cycle;Max_cycle;Signal;HPM_P1;HPM_P2
2024/03/08 00:01:46;;;;;;;20.77;17.93;;;7.80;74.60;;;;;;5054571;28;20970;-56
2024/03/08 00:04:15;;;;;;;21.70;17.13;;;7.70;74.90;;;;;;5054645;28;20462;-56
2024/03/08 00:06:45;;;;;;;22.73;17.37;;;7.60;75.20;;;;;;5054744;28;20457;-56
2024/03/08 00:09:12;;;;;;;27.10;18.60;;;7.60;75.30;;;;;;5054449;28;20446;-56
2024/03/08 00:11:39;;;;;;;18.37;16.40;;;7.60;75.30;;;;;;5054326;28;20961;-56
2024/03/08 00:14:07;;;;;;;24.03;16.70;;;7.50;75.00;;;;;;5054629;28;20469;-56
2024/03/08 00:16:35;;;;;;;22.50;17.77;;;7.60;75.30;;;;;;5054765;28;20450;-56
2024/03/08 00:19:02;;;;;;;20.43;16.90;;;7.50;75.20;;;;;;5054530;28;20485;-56
2024/03/08 00:21:31;;;;;;;19.77;16.47;;;7.60;75.20;;;;;;5054440;28;20441;-56
2024/03/08 00:23:58;;;;;;;22.17;16.87;;;7.50;75.60;;;;;;5054223;28;20940;-56
2024/03/08 00:26:24;;;;;;;20.53;15.03;;;7.50;75.20;;;;;;5054405;28;20448;-56
2024/03/08 00:28:51;;;;;;;25.60;17.73;;;7.50;76.00;;;;;;5054646;28;20441;-56
2024/03/08 00:31:18;;;;;;;25.13;18.43;;;7.60;75.40;;;;;;5055380;28;20441;-56
2024/03/08 00:33:45;;;;;;;20.70;17.63;;;7.50;75.20;;;;;;5055058;28;20484;-56
2024/03/08 00:36:12;;;;;;;18.97;16.80;;;7.50;75.60;;;;;;5054348;28;20489;-56
2024/03/08 00:38:40;;;;;;;23.57;17.13;;;7.50;75.80;;;;;;5054176;28;20452;-56
2024/03/08 00:41:07;;;;;;;22.23;16.70;;;7.50;75.60;;;;;;5053940;28;20819;-56
2024/03/08 00:43:34;;;;;;;19.83;17.37;;;7.50;75.30;;;;;;5054179;28;20901;-56
2024/03/08 00:46:01;;;;;;;22.40;17.63;;;7.40;76.30;;;;;;5053970;28;20474;-56
2024/03/08 00:48:28;;;;;;;22.43;18.07;;;7.20;76.90;;;;;;5053275;28;20877;-56
2024/03/08 00:50:54;;;;;;;20.43;16.70;;;7.30;76.80;;;;;;5054045;28;20442;-56
2024/03/08 00:53:21;;;;;;;23.27;18.43;;;7.30;76.70;;;;;;5053289;28;20449;-56
2024/03/08 00:55:49;;;;;;;24.20;18.53;;;7.20;76.70;;;;;;5053920;28;20849;-56
2024/03/08 00:58:16;;;;;;;23.73;17.90;;;7.20;76.70;;;;;;5053818;28;20441;-56
2024/03/08 01:00:44;;;;;;;20.37;17.00;;;7.20;76.50;;;;;;5053909;28;20438;-56
2024/03/08 01:03:11;;;;;;;23.00;18.67;;;7.20;76.60;;;;;;5054102;28;20455;-56
2024/03/08 01:05:38;;;;;;;25.97;18.47;;;7.20;76.80;;;;;;5053821;28;20462;-56
2024/03/08 01:08:05;;;;;;;20.73;18.40;;;7.20;76.60;;;;;;5053799;28;20448;-56
2024/03/08 01:10:32;;;;;;;23.57;18.40;;;7.10;77.20;;;;;;5053771;28;20444;-56
2024/03/08 01:13:00;;;;;;;23.87;18.30;;;7.10;77.40;;;;;;5053786;28;20438;-56
2024/03/08 01:15:27;;;;;;;20.70;18.20;;;7.00;77.80;;;;;;5053805;28;20540;-56
2024/03/08 01:17:54;;;;;;;19.87;17.43;;;7.00;77.80;;;;;;5053344;28;20450;-56
2024/03/08 01:20:21;;;;;;;25.60;19.80;;;7.00;77.80;;;;;;5053562;28;20441;-56
2024/03/08 01:22:47;;;;;;;24.13;18.17;;;7.00;77.30;;;;;;5054107;28;20446;-56
2024/03/08 01:25:14;;;;;;;20.47;17.03;;;7.10;77.30;;;;;;5053668;28;20497;-56
2024/03/08 01:27:41;;;;;;;27.43;21.27;;;7.10;77.20;;;;;;5053537;28;20442;-56
2024/03/08 01:30:10;;;;;;;26.63;19.43;;;7.20;77.10;;;;;;5053545;28;20452;-56
2024/03/08 01:32:38;;;;;;;25.53;18.57;;;7.10;77.60;;;;;;5053386;28;20438;-55
2024/03/08 01:35:05;;;;;;;23.13;19.13;;;6.90;78.30;;;;;;5053320;28;20516;-56
2024/03/08 01:37:32;;;;;;;28.53;20.60;;;7.00;78.30;;;;;;5053492;28;20453;-56
2024/03/08 01:39:59;;;;;;;25.40;19.00;;;7.00;78.20;;;;;;5053439;28;20444;-56
2024/03/08 01:42:26;;;;;;;22.50;18.40;;;6.90;78.20;;;;;;5053409;28;20456;-56
2024/03/08 01:44:53;;;;;;;22.87;18.47;;;6.70;79.60;;;;;;5053304;28;20457;-56
2024/03/08 01:47:22;;;;;;;25.33;18.20;;;6.70;80.20;;;;;;5054094;28;20441;-56
2024/03/08 01:49:49;;;;;;;27.63;18.67;;;6.70;79.60;;;;;;5053222;28;20936;-56
2024/03/08 01:52:18;;;;;;;22.30;18.70;;;6.80;78.90;;;;;;5053466;28;20441;-56
2024/03/08 01:54:46;;;;;;;20.53;17.27;;;6.90;79.00;;;;;;5052636;28;20496;-56
2024/03/08 01:57:13;;;;;;;23.83;18.73;;;6.90;78.90;;;;;;5053082;28;20536;-56
2024/03/08 01:59:41;;;;;;;22.83;18.30;;;6.80;78.90;;;;;;5053915;28;20437;-56
2024/03/08 02:02:10;;;;;;;24.20;19.10;;;6.70;79.50;;;;;;5057302;28;20826;-56
2024/03/08 02:04:38;;;;;;;24.23;17.67;;;6.80;79.90;;;;;;5056854;28;20457;-56
2024/03/08 02:07:05;;;;;;;23.50;19.10;;;6.80;79.80;;;;;;5057043;28;20441;-56
2024/03/08 02:09:32;;;;;;;22.23;17.70;;;6.80;80.00;;;;;;5056932;28;20538;-56
2024/03/08 02:11:59;;;;;;;22.67;18.70;;;6.80;79.70;;;;;;5056566;28;20442;-56
2024/03/08 02:14:26;;;;;;;21.03;17.53;;;6.70;79.80;;;;;;5056706;28;20453;-56
2024/03/08 02:16:54;;;;;;;25.53;20.20;;;6.80;79.70;;;;;;5056342;28;20492;-56
2024/03/08 02:19:20;;;;;;;26.37;18.23;;;6.80;79.80;;;;;;5056831;28;20477;-56
2024/03/08 02:21:48;;;;;;;23.30;18.33;;;6.60;80.60;;;;;;5056793;28;20444;-56
2024/03/08 02:24:16;;;;;;;26.87;20.07;;;6.70;80.70;;;;;;5056704;28;20471;-56
2024/03/08 02:26:43;;;;;;;25.57;19.60;;;6.70;80.40;;;;;;5057147;28;20445;-56
2024/03/08 02:29:10;;;;;;;22.10;18.03;;;6.70;80.40;;;;;;5057371;28;20442;-56
2024/03/08 02:31:39;;;;;;;25.97;19.50;;;6.60;80.50;;;;;;5056699;28;20481;-56
2024/03/08 02:34:06;;;;;;;28.80;20.60;;;6.60;80.60;;;;;;5056372;28;20510;-56
2024/03/08 02:36:34;;;;;;;28.70;19.97;;;6.60;80.30;;;;;;5056297;28;20487;-56
2024/03/08 02:39:03;;;;;;;26.20;17.73;;;6.40;81.30;;;;;;5056421;28;20446;-56
2024/03/08 02:41:30;;;;;;;27.20;19.13;;;6.50;81.30;;;;;;5056009;28;20544;-56
2024/03/08 02:43:56;;;;;;;24.23;19.40;;;6.50;80.90;;;;;;5055829;28;20437;-56
2024/03/08 02:46:24;;;;;;;30.90;20.87;;;6.40;81.30;;;;;;5055944;28;20446;-56
2024/03/08 02:48:51;;;;;;;25.80;19.77;;;6.40;81.50;;;;;;5056722;28;20457;-56
2024/03/08 02:51:17;;;;;;;22.53;17.90;;;6.40;81.40;;;;;;5056286;28;20447;-56
2024/03/08 02:53:44;;;;;;;24.80;20.10;;;6.40;81.20;;;;;;5055707;28;20833;-56
2024/03/08 02:56:16;;;;;;;21.47;17.20;;;6.40;81.30;;;;;;5055828;28;21033;-56
2024/03/08 02:58:43;;;;;;;29.67;21.50;;;6.40;81.20;;;;;;5056001;28;20524;-56
2024/03/08 03:01:10;;;;;;;26.00;19.33;;;6.40;81.40;;;;;;5055888;28;20446;-56
2024/03/08 03:03:37;;;;;;;24.47;19.50;;;6.50;81.30;;;;;;5055609;28;20442;-56
2024/03/08 03:06:04;;;;;;;25.93;20.10;;;6.50;80.70;;;;;;5055842;28;20461;-56
2024/03/08 03:08:31;;;;;;;23.90;19.43;;;6.50;80.30;;;;;;5055881;28;20539;-56
2024/03/08 03:10:57;;;;;;;24.83;19.23;;;6.50;80.80;;;;;;5055517;28;20442;-56
2024/03/08 03:13:26;;;;;;;23.70;18.47;;;6.50;80.80;;;;;;5055695;28;20449;-55
2024/03/08 03:15:52;;;;;;;28.00;20.40;;;6.50;80.80;;;;;;5055563;28;20580;-56
2024/03/08 03:18:21;;;;;;;28.27;21.23;;;6.50;80.60;;;;;;5055271;28;20816;-55
2024/03/08 03:20:49;;;;;;;25.97;19.87;;;6.50;80.40;;;;;;5055904;28;20457;-56
2024/03/08 03:23:20;;;;;;;27.87;19.90;;;6.60;80.60;;;;;;5055610;28;20438;-56
2024/03/08 03:25:47;;;;;;;24.20;19.73;;;6.50;80.60;;;;;;5055139;28;20500;-56
2024/03/08 03:28:17;;;;;;;28.50;20.10;;;6.60;80.70;;;;;;5055121;28;20803;-55
2024/03/08 03:30:46;;;;;;;26.17;20.03;;;6.50;80.70;;;;;;5055085;28;20844;-56
2024/03/08 03:33:14;;;;;;;29.73;19.87;;;6.50;80.40;;;;;;5055367;28;20558;-56
2024/03/08 03:35:42;;;;;;;25.50;19.00;;;6.50;80.10;;;;;;5055125;28;20489;-56
2024/03/08 03:38:09;;;;;;;25.83;19.70;;;6.50;80.30;;;;;;5055257;28;20484;-56
2024/03/08 03:40:37;;;;;;;25.40;18.87;;;6.50;80.50;;;;;;5055529;28;20441;-56
2024/03/08 03:43:04;;;;;;;25.70;19.20;;;6.30;81.20;;;;;;5055177;28;20437;-56
2024/03/08 03:45:34;;;;;;;26.30;20.50;;;6.10;82.40;;;;;;5055105;28;20462;-56
2024/03/08 03:48:03;;;;;;;26.23;19.50;;;6.10;83.10;;;;;;5054899;28;20971;-56
2024/03/08 03:50:30;;;;;;;25.27;18.37;;;6.10;83.00;;;;;;5056187;28;20444;-56
2024/03/08 03:52:57;;;;;;;30.03;21.23;;;6.10;83.00;;;;;;5055340;28;20820;-56
2024/03/08 03:55:23;;;;;;;26.47;19.97;;;6.00;83.00;;;;;;5055076;28;20535;-56
2024/03/08 03:57:50;;;;;;;34.00;21.03;;;6.00;82.90;;;;;;5055778;28;20446;-56
2024/03/08 04:00:18;;;;;;;27.70;19.80;;;6.00;83.10;;;;;;5054930;28;21074;-56
2024/03/08 04:02:44;;;;;;;26.90;18.40;;;6.10;83.20;;;;;;5055303;28;20441;-56
2024/03/08 04:05:13;;;;;;;27.40;19.97;;;6.00;83.10;;;;;;5054514;28;20837;-56
2024/03/08 04:07:41;;;;;;;24.30;19.50;;;6.00;83.90;;;;;;5054838;28;20439;-56
2024/03/08 04:10:11;;;;;;;27.27;20.13;;;6.10;83.60;;;;;;5054977;28;20499;-56
2024/03/08 04:12:38;;;;;;;28.07;19.47;;;6.10;83.20;;;;;;5054470;28;20855;-56
2024/03/08 04:15:07;;;;;;;27.27;19.73;;;6.00;83.20;;;;;;5054595;28;20461;-56
2024/03/08 04:17:35;;;;;;;26.37;19.07;;;5.90;84.00;;;;;;5054247;28;20914;-56
2024/03/08 04:20:07;;;;;;;24.40;19.00;;;5.90;83.80;;;;;;5054878;28;20453;-56
2024/03/08 04:22:36;;;;;;;30.97;20.53;;;5.90;83.60;;;;;;5053861;28;20434;-56
2024/03/08 04:25:03;;;;;;;25.27;19.33;;;5.90;83.60;;;;;;5054263;28;20476;-55
2024/03/08 04:27:29;;;;;;;25.70;19.33;;;6.00;83.40;;;;;;5053961;28;20481;-56
2024/03/08 04:29:56;;;;;;;24.77;18.67;;;6.10;83.20;;;;;;5054283;28;20452;-56
2024/03/08 04:32:23;;;;;;;25.23;18.80;;;6.10;82.90;;;;;;5054353;28;20483;-55
2024/03/08 04:34:50;;;;;;;24.97;19.03;;;6.10;82.80;;;;;;5054183;28;20470;-56
2024/03/08 04:37:18;;;;;;;25.87;18.97;;;6.10;83.00;;;;;;5053843;28;20448;-56
2024/03/08 04:39:46;;;;;;;26.57;18.97;;;6.10;82.80;;;;;;5054138;28;20892;-56
2024/03/08 04:42:13;;;;;;;25.37;17.80;;;6.10;83.30;;;;;;5053829;28;20948;-56
2024/03/08 04:44:40;;;;;;;25.70;19.60;;;6.10;82.60;;;;;;5053757;28;20837;-56
2024/03/08 04:47:07;;;;;;;25.50;19.27;;;6.10;82.90;;;;;;5053943;28;20480;-56
2024/03/08 04:49:35;;;;;;;23.13;18.37;;;6.10;83.00;;;;;;5053784;28;20449;-56
2024/03/08 04:52:03;;;;;;;26.37;19.63;;;6.00;83.00;;;;;;5053895;28;20442;-56
2024/03/08 04:54:30;;;;;;;28.00;18.93;;;6.10;83.20;;;;;;5053383;28;20995;-56
2024/03/08 04:56:59;;;;;;;27.40;18.60;;;6.10;83.10;;;;;;5053563;28;20532;-56
2024/03/08 04:59:26;;;;;;;28.80;19.53;;;6.00;83.30;;;;;;5054666;28;20508;-56
2024/03/08 05:01:53;;;;;;;24.23;18.20;;;6.00;83.60;;;;;;5053738;28;20834;-56
2024/03/08 05:04:20;;;;;;;25.97;19.80;;;5.90;84.00;;;;;;5053583;28;20462;-56
2024/03/08 05:06:47;;;;;;;28.70;19.37;;;5.80;84.10;;;;;;5053566;28;20486;-56
2024/03/08 05:09:14;;;;;;;27.30;20.00;;;5.80;84.30;;;;;;5053279;28;20442;-56
2024/03/08 05:11:42;;;;;;;27.47;20.10;;;5.80;85.00;;;;;;5053473;28;20445;-56
2024/03/08 05:14:10;;;;;;;35.23;19.20;;;5.70;84.90;;;;;;5053444;28;20446;-56
2024/03/08 05:16:37;;;;;;;28.23;21.00;;;5.60;85.40;;;;;;5053597;28;20878;-56
2024/03/08 05:19:04;;;;;;;28.83;18.80;;;5.60;85.20;;;;;;5053202;28;20568;-56
2024/03/08 05:21:31;;;;;;;27.73;20.87;;;5.70;85.30;;;;;;5053191;28;20499;-56
2024/03/08 05:23:58;;;;;;;23.27;19.77;;;5.70;85.10;;;;;;5053241;28;20441;-56
2024/03/08 05:26:24;;;;;;;27.93;21.60;;;5.70;85.10;;;;;;5052943;28;20852;-56
2024/03/08 05:28:51;;;;;;;26.93;18.13;;;5.70;85.10;;;;;;5052974;28;20440;-56
2024/03/08 05:31:23;;;;;;;32.00;21.50;;;5.80;86.20;;;;;;5053008;28;20847;-55
2024/03/08 05:33:50;;;;;;;26.60;19.40;;;5.90;87.40;;;;;;5053392;28;20442;-56
2024/03/08 05:36:17;;;;;;;27.20;19.13;;;6.00;86.90;;;;;;5053258;28;20453;-55
2024/03/08 05:38:44;;;;;;;25.77;19.30;;;6.00;85.60;;;;;;5053235;28;20449;-56
2024/03/08 05:41:11;;;;;;;26.17;19.40;;;5.80;84.80;;;;;;5053302;28;20441;-56
2024/03/08 05:43:38;;;;;;;26.60;19.27;;;5.70;85.30;;;;;;5054108;28;20445;-56
2024/03/08 05:46:05;;;;;;;27.10;18.43;;;5.80;85.40;;;;;;5052995;28;20468;-56
2024/03/08 05:48:33;;;;;;;24.90;19.00;;;5.80;85.00;;;;;;5053097;28;20450;-56
2024/03/08 05:51:01;;;;;;;31.43;20.70;;;5.80;85.00;;;;;;5053092;28;20534;-56
2024/03/08 05:53:31;;;;;;;25.40;18.57;;;5.80;84.80;;;;;;5053312;28;20469;-56
2024/03/08 05:55:58;;;;;;;29.43;20.13;;;5.90;84.70;;;;;;5053041;28;20473;-56
2024/03/08 05:58:25;;;;;;;23.40;19.03;;;5.80;84.60;;;;;;5052823;28;20966;-56
2024/03/08 06:00:52;;;;;;;29.23;18.83;;;5.80;84.60;;;;;;5053116;28;20823;-56
2024/03/08 06:03:21;;;;;;;31.00;20.50;;;5.80;84.70;;;;;;5053056;28;20476;-56
2024/03/08 06:05:49;;;;;;;31.07;20.37;;;5.70;85.30;;;;;;5052637;28;20477;-56
2024/03/08 06:08:16;;;;;;;29.60;21.50;;;5.70;85.90;;;;;;5052603;28;20518;-56
2024/03/08 06:10:43;;;;;;;29.70;20.00;;;5.70;86.00;;;;;;5052862;28;20815;-56
2024/03/08 06:13:12;;;;;;;28.70;20.10;;;5.70;85.80;;;;;;5052930;28;20537;-55
2024/03/08 06:15:38;;;;;;;30.60;21.10;;;5.70;85.70;;;;;;5052462;28;20892;-56
2024/03/08 06:18:07;;;;;;;31.87;21.53;;;5.80;85.70;;;;;;5053005;28;20438;-56
2024/03/08 06:20:34;;;;;;;31.33;20.93;;;5.80;85.80;;;;;;5052821;28;20442;-56
2024/03/08 06:23:02;;;;;;;25.57;19.57;;;5.70;86.00;;;;;;5052832;28;20441;-56
2024/03/08 06:25:29;;;;;;;24.53;20.07;;;5.70;86.10;;;;;;5052470;28;20892;-56
2024/03/08 06:27:56;;;;;;;26.80;20.27;;;5.70;86.20;;;;;;5052374;28;20540;-55
2024/03/08 06:30:23;;;;;;;28.00;20.10;;;5.80;86.20;;;;;;5052956;28;20441;-55
2024/03/08 06:32:50;;;;;;;26.53;20.00;;;5.80;86.20;;;;;;5052440;28;20442;-56
2024/03/08 06:35:16;;;;;;;31.30;21.20;;;5.80;86.20;;;;;;5052669;28;20908;-56
2024/03/08 06:37:44;;;;;;;26.40;19.67;;;5.80;86.20;;;;;;5052663;28;20445;-56
2024/03/08 06:40:14;;;;;;;28.40;19.83;;;5.90;86.10;;;;;;5052402;28;20816;-56
2024/03/08 06:42:41;;;;;;;26.90;19.77;;;5.90;85.80;;;;;;5052772;28;20517;-56
2024/03/08 06:45:09;;;;;;;28.87;20.87;;;5.90;85.80;;;;;;5052717;28;20999;-56
2024/03/08 06:47:36;;;;;;;26.07;19.30;;;6.00;85.90;;;;;;5056129;28;20492;-56
2024/03/08 06:50:05;;;;;;;30.00;20.30;;;6.00;85.60;;;;;;5055866;28;20438;-56
2024/03/08 06:52:32;;;;;;;25.93;19.20;;;6.00;85.80;;;;;;5056424;28;20452;-56
2024/03/08 06:55:01;;;;;;;30.80;20.60;;;6.00;85.90;;;;;;5055788;28;20485;-56
2024/03/08 06:57:29;;;;;;;27.90;20.90;;;6.00;85.90;;;;;;5056134;28;20450;-56
2024/03/08 06:59:57;;;;;;;28.50;19.23;;;6.00;86.00;;;;;;5056148;28;20445;-56
2024/03/08 07:02:25;;;;;;;31.30;20.77;;;6.00;85.90;;;;;;5056296;28;20476;-56
2024/03/08 07:04:52;;;;;;;26.60;21.00;;;6.00;85.90;;;;;;5056010;28;20472;-56
2024/03/08 07:07:20;;;;;;;29.60;21.07;;;6.10;86.10;;;;;;5055920;28;20576;-56
2024/03/08 07:09:49;;;;;;;28.80;21.13;;;6.10;85.70;;;;;;5056755;28;20449;-56
2024/03/08 07:12:16;;;;;;;27.80;20.70;;;6.10;85.60;;;;;;5056158;28;21013;-56
2024/03/08 07:14:45;;;;;;;29.33;19.80;;;6.10;85.80;;;;;;5056492;28;20470;-56
2024/03/08 07:17:12;;;;;;;28.33;19.83;;;6.10;86.00;;;;;;5056336;28;20504;-56
2024/03/08 07:19:39;;;;;;;26.17;19.87;;;6.20;86.20;;;;;;5056053;28;20452;-56
2024/03/08 07:22:08;;;;;;;32.03;21.37;;;6.20;86.30;;;;;;5056075;28;20449;-56
2024/03/08 07:24:49;;;;;;;29.40;21.03;;;6.20;86.40;;;;;;5055742;28;21045;-56
2024/03/08 07:27:17;;;;;;;28.27;20.20;;;6.20;86.40;;;;;;5055909;28;20473;-56
2024/03/08 07:29:45;;;;;;;33.30;21.40;;;6.30;86.50;;;;;;5056017;28;20448;-56
2024/03/08 07:32:20;;;;;;;31.53;21.23;;;6.30;86.60;;;;;;5055920;28;20450;-56
2024/03/08 07:34:48;;;;;;;30.80;21.50;;;6.40;86.70;;;;;;5055525;28;20461;-56
2024/03/08 07:37:15;;;;;;;32.00;20.87;;;6.40;86.70;;;;;;5055455;28;20444;-56
2024/03/08 07:39:41;;;;;;;30.27;22.40;;;6.40;86.60;;;;;;5055392;28;20456;-56
2024/03/08 07:42:08;;;;;;;28.93;20.43;;;6.50;86.70;;;;;;5055327;28;20442;-56
2024/03/08 07:44:35;;;;;;;29.70;20.87;;;6.50;86.60;;;;;;5055135;28;20567;-56
2024/03/08 07:47:04;;;;;;;31.73;20.77;;;6.60;86.40;;;;;;5055251;28;20480;-56
2024/03/08 07:49:31;;;;;;;27.80;20.40;;;6.70;86.40;;;;;;5054749;28;20449;-56
2024/03/08 07:51:59;;;;;;;27.47;19.90;;;6.70;86.20;;;;;;5054703;28;20441;-56
2024/03/08 07:54:26;;;;;;;29.83;21.03;;;6.80;87.10;;;;;;5054898;28;20560;-56
2024/03/08 07:56:53;;;;;;;24.43;19.67;;;6.90;86.20;;;;;;5053983;28;20534;-56
2024/03/08 07:59:20;;;;;;;26.90;20.53;;;6.90;85.90;;;;;;5054899;28;20445;-55
2024/03/08 08:01:47;;;;;;;29.27;19.70;;;7.00;85.70;;;;;;5054930;28;20481;-56
2024/03/08 08:04:17;;;;;;;31.73;20.33;;;7.10;85.60;;;;;;5055587;28;20783;-56
2024/03/08 08:06:44;;;;;;;32.10;21.27;;;7.20;85.30;;;;;;5054693;28;20441;-57
2024/03/08 08:09:14;;;;;;;29.13;20.00;;;7.20;85.20;;;;;;5054718;28;20577;-56
2024/03/08 08:11:43;;;;;;;28.60;20.03;;;7.30;84.50;;;;;;5054627;28;20515;-56
2024/03/08 08:14:10;;;;;;;31.07;21.47;;;7.40;84.20;;;;;;5054632;28;20495;-56
2024/03/08 08:16:37;;;;;;;25.40;19.57;;;7.40;83.80;;;;;;5054337;28;20449;-56
2024/03/08 08:19:07;;;;;;;28.43;21.13;;;7.50;83.70;;;;;;5054548;28;20437;-56
2024/03/08 08:21:36;;;;;;;27.30;19.90;;;7.60;83.60;;;;;;5054454;28;20452;-56
2024/03/08 08:24:03;;;;;;;27.07;19.90;;;7.70;83.40;;;;;;5054167;28;20445;-56
2024/03/08 08:26:30;;;;;;;28.37;19.50;;;7.70;83.40;;;;;;5054435;28;20444;-56
2024/03/08 08:28:57;;;;;;;25.90;19.43;;;7.80;83.50;;;;;;5054301;28;20492;-56
2024/03/08 08:31:24;;;;;;;27.90;20.53;;;7.90;83.00;;;;;;5054141;28;20962;-56
2024/03/08 08:33:53;;;;;;;26.80;20.40;;;7.90;82.40;;;;;;5054072;28;20452;-56
2024/03/08 08:36:20;;;;;;;22.80;18.40;;;8.00;82.20;;;;;;5054132;28;20469;-56
2024/03/08 08:38:48;;;;;;;26.07;19.33;;;8.00;81.90;;;;;;5053843;28;20814;-56
2024/03/08 08:41:17;;;;;;;25.50;19.67;;;8.10;81.80;;;;;;5054191;28;20446;-56
2024/03/08 08:43:44;;;;;;;31.00;20.33;;;8.20;82.80;;;;;;5054243;28;20449;-56
2024/03/08 08:46:13;;;;;;;24.80;18.57;;;8.20;82.00;;;;;;5054088;28;20469;-56
2024/03/08 08:48:40;;;;;;;26.50;18.63;;;8.30;81.60;;;;;;5053976;28;20575;-56
2024/03/08 08:51:10;;;;;;;25.70;17.90;;;8.30;81.60;;;;;;5054078;28;20480;-56
2024/03/08 08:53:40;;;;;;;22.00;18.47;;;8.40;81.80;;;;;;5053836;28;20458;-56
2024/03/08 08:56:08;;;;;;;24.60;18.10;;;8.40;81.60;;;;;;5053894;28;20535;-56
2024/03/08 08:58:35;;;;;;;24.70;19.90;;;8.50;80.80;;;;;;5053553;28;20932;-56
2024/03/08 09:01:02;;;;;;;26.63;20.47;;;8.60;80.50;;;;;;5053823;28;20444;-56
2024/03/08 09:03:29;;;;;;;23.43;18.60;;;8.70;80.40;;;;;;5054523;28;20533;-56
2024/03/08 09:05:56;;;;;;;24.97;18.37;;;8.70;79.20;;;;;;5053699;28;20462;-56
2024/03/08 09:08:24;;;;;;;26.43;17.90;;;8.80;79.30;;;;;;5052990;28;21021;-56
2024/03/08 09:10:51;;;;;;;26.70;19.27;;;8.80;79.20;;;;;;5053586;28;20449;-56
2024/03/08 09:13:19;;;;;;;25.17;19.17;;;8.90;79.00;;;;;;5053218;28;20449;-56
2024/03/08 09:15:46;;;;;;;24.90;19.33;;;8.90;78.80;;;;;;5053195;28;20461;-56
2024/03/08 09:18:13;;;;;;;26.53;18.90;;;9.00;78.60;;;;;;5053488;28;20452;-56
2024/03/08 09:20:41;;;;;;;25.87;18.97;;;9.10;78.40;;;;;;5053557;28;20441;-56
2024/03/08 09:23:08;;;;;;;19.20;15.73;;;9.20;78.60;;;;;;5053421;28;20485;-56
2024/03/08 09:25:35;;;;;;;23.57;17.60;;;9.30;77.90;;;;;;5053282;28;20840;-56
2024/03/08 09:28:02;;;;;;;28.13;17.37;;;9.40;77.00;;;;;;5053228;28;20484;-56
2024/03/08 09:30:30;;;;;;;24.37;18.03;;;9.40;75.40;;;;;;5053371;28;20473;-56
2024/03/08 09:32:57;;;;;;;26.20;18.60;;;9.50;75.60;;;;;;5053304;28;20441;-57
2024/03/08 09:35:24;;;;;;;22.30;17.70;;;9.50;74.70;;;;;;5053220;28;20834;-56
2024/03/08 09:37:51;;;;;;;21.20;17.17;;;9.50;75.00;;;;;;5052931;28;20453;-56
2024/03/08 09:40:19;;;;;;;21.77;17.47;;;9.70;74.80;;;;;;5053274;28;20453;-56
2024/03/08 09:42:46;;;;;;;22.70;18.10;;;9.70;74.20;;;;;;5053321;28;20449;-56
2024/03/08 09:45:15;;;;;;;20.40;16.80;;;9.80;74.00;;;;;;5052815;28;20998;-56
2024/03/08 09:47:44;;;;;;;22.80;16.80;;;9.90;72.00;;;;;;5052821;28;20991;-56
2024/03/08 09:50:12;;;;;;;20.93;16.43;;;10.00;69.70;;;;;;5052929;28;20932;-56
2024/03/08 09:52:39;;;;;;;21.57;16.10;;;10.00;70.20;;;;;;5052798;28;20951;-56
2024/03/08 09:55:07;;;;;;;23.50;15.93;;;10.00;70.90;;;;;;5052728;28;20481;-56
2024/03/08 09:57:36;;;;;;;20.07;16.87;;;10.10;70.60;;;;;;5053124;28;20525;-56
2024/03/08 10:00:08;;;;;;;24.03;17.07;;;10.20;71.40;;;;;;5053036;28;20452;-56
2024/03/08 10:02:36;;;;;;;18.50;15.90;;;10.30;70.50;;;;;;5052653;28;20974;-56
2024/03/08 10:05:04;;;;;;;20.67;16.37;;;10.50;70.30;;;;;;5052718;28;21010;-56
2024/03/08 10:07:32;;;;;;;17.97;15.80;;;10.60;68.50;;;;;;5052591;28;20676;-56
2024/03/08 10:10:00;;;;;;;23.40;16.00;;;10.80;68.60;;;;;;5052911;28;20437;-56
2024/03/08 10:12:28;;;;;;;17.73;14.93;;;11.00;68.40;;;;;;5052639;28;21050;-56
2024/03/08 10:14:56;;;;;;;18.60;16.33;;;11.20;68.30;;;;;;5052897;28;20472;-56
2024/03/08 10:17:23;;;;;;;19.53;14.90;;;11.50;65.80;;;;;;5053802;28;20495;-56
2024/03/08 10:19:52;;;;;;;18.70;14.90;;;11.70;64.10;;;;;;5052846;28;20445;-56
2024/03/08 10:22:20;;;;;;;17.20;15.23;;;12.00;62.40;;;;;;5057181;28;20982;-56
2024/03/08 10:24:47;;;;;;;18.20;15.10;;;12.30;61.60;;;;;;5057332;28;20520;-56
2024/03/08 10:27:13;;;;;;;16.30;14.60;;;12.70;60.60;;;;;;5056802;28;20445;-56
2024/03/08 10:29:44;;;;;;;17.03;14.93;;;13.00;59.30;;;;;;5056782;28;20507;-56
2024/03/08 10:32:11;;;;;;;17.83;15.20;;;13.40;58.30;;;;;;5056521;28;20654;-56
2024/03/08 10:34:38;;;;;;;22.63;16.00;;;13.80;57.60;;;;;;5056814;28;20461;-56
2024/03/08 10:37:08;;;;;;;17.20;15.40;;;14.20;57.00;;;;;;5056692;28;20931;-56
2024/03/08 10:39:37;;;;;;;15.53;12.87;;;14.70;54.20;;;;;;5056831;28;20535;-55
2024/03/08 10:42:06;;;;;;;15.63;14.13;;;15.10;52.40;;;;;;5056710;28;20462;-56
2024/03/08 10:44:50;;;;;;;24.33;15.30;;;15.30;50.90;;;;;;5056568;28;20482;-56
2024/03/08 10:47:20;;;;;;;21.93;14.13;;;15.60;49.40;;;;;;5056568;28;20465;-56
2024/03/08 10:49:53;;;;;;;14.80;13.30;;;15.80;48.30;;;;;;5056007;28;21010;-56
2024/03/08 10:52:20;;;;;;;15.40;12.90;;;15.90;47.60;;;;;;5056099;28;20943;-56
2024/03/08 10:54:49;;;;;;;17.83;14.90;;;16.30;47.50;;;;;;5055820;28;20484;-56
2024/03/08 10:57:19;;;;;;;15.30;13.67;;;16.70;46.90;;;;;;5056323;28;20445;-57
2024/03/08 10:59:49;;;;;;;15.40;13.80;;;17.00;45.10;;;;;;5056268;28;20442;-56
2024/03/08 11:02:18;;;;;;;16.90;14.03;;;17.40;44.60;;;;;;5056265;28;20462;-56
2024/03/08 11:04:49;;;;;;;13.87;12.40;;;17.80;43.50;;;;;;5055735;28;20487;-56
2024/03/08 11:07:19;;;;;;;16.03;14.37;;;18.10;42.70;;;;;;5055742;28;20540;-56
2024/03/08 11:09:49;;;;;;;36.30;32.60;;;18.40;41.30;;;;;;5055878;28;20476;-56
2024/03/08 11:12:25;;;;;;;18.07;14.10;;;18.60;40.60;;;;;;5055576;28;20808;-56
2024/03/08 11:14:52;;;;;;;16.13;12.70;;;18.80;39.90;;;;;;5055823;28;20697;-56
2024/03/08 11:17:22;;;;;;;13.97;12.47;;;19.00;39.10;;;;;;5055883;28;20444;-56
2024/03/08 11:19:51;;;;;;;12.70;11.40;;;19.30;39.00;;;;;;5056009;28;20444;-56
2024/03/08 11:22:24;;;;;;;12.40;11.03;;;19.60;38.00;;;;;;5055579;28;20445;-56
2024/03/08 11:24:52;;;;;;;11.47;10.37;;;19.80;36.50;;;;;;5055915;28;20469;-56
2024/03/08 11:27:20;;;;;;;12.77;11.50;;;20.10;36.70;;;;;;5055668;28;20445;-56
2024/03/08 11:30:08;;;;;;;11.30;10.20;;;20.30;35.30;;;;;;5055367;28;20508;-56
2024/03/08 11:32:37;;;;;;;10.80;9.50;;;20.50;35.50;;;;;;5054825;28;20450;-56
2024/03/08 11:35:08;;;;;;;12.30;10.67;;;20.50;34.90;;;;;;5055074;28;20979;-56
2024/03/08 11:37:35;;;;;;;11.87;9.47;;;20.80;35.00;;;;;;5055218;28;20434;-57
2024/03/08 11:40:15;;;;;;;11.00;10.00;;;20.90;33.50;;;;;;5055353;28;20447;-56
2024/03/08 11:42:46;;;;;;;10.57;9.57;;;21.10;33.30;;;;;;5055100;28;20437;-57
2024/03/08 11:45:13;;;;;;;12.77;9.87;;;21.30;32.50;;;;;;5054904;28;20979;-57
2024/03/08 11:47:42;;;;;;;11.17;10.00;;;21.50;32.50;;;;;;5055224;28;20446;-57
2024/03/08 11:50:12;;;;;;;10.20;9.30;;;21.70;32.40;;;;;;5055024;28;20438;-57
2024/03/08 11:52:38;;;;;;;14.20;9.40;;;22.00;31.20;;;;;;5054706;28;20452;-56
2024/03/08 11:55:08;;;;;;;11.40;9.77;;;22.30;30.80;;;;;;5054790;28;20480;-57
2024/03/08 11:57:35;;;;;;;10.47;9.47;;;22.60;30.50;;;;;;5054759;28;20448;-56
2024/03/08 12:00:06;;;;;;;10.93;10.00;;;22.90;30.00;;;;;;5054943;28;20448;-57
2024/03/08 12:02:35;;;;;;;10.47;9.47;;;23.20;29.90;;;;;;5055396;28;20826;-56
2024/03/08 12:05:03;;;;;;;10.47;9.47;;;23.50;29.60;;;;;;5054434;28;20498;-56
2024/03/08 12:07:32;;;;;;;12.07;10.23;;;23.50;28.20;;;;;;5054844;28;20445;-56
2024/03/08 12:10:21;;;;;;;72.43;64.40;;;23.30;28.50;;;;;;5054691;28;20482;-56
2024/03/08 12:12:51;;;;;;;11.00;10.00;;;23.20;29.20;;;;;;5055325;28;20452;-56
2024/03/08 12:15:18;;;;;;;11.70;10.60;;;22.80;28.60;;;;;;5054596;28;20906;-56
2024/03/08 12:17:47;;;;;;;11.80;10.70;;;22.40;28.20;;;;;;5054614;28;20446;-56
2024/03/08 12:20:17;;;;;;;11.53;10.43;;;22.20;29.90;;;;;;5054379;28;20990;-56
2024/03/08 12:22:44;;;;;;;12.77;10.37;;;22.30;28.60;;;;;;5054506;28;20457;-56
2024/03/08 12:25:12;;;;;;;12.00;10.67;;;22.60;29.20;;;;;;5054163;28;20553;-57
2024/03/08 12:27:42;;;;;;;11.83;10.73;;;23.10;28.80;;;;;;5054518;28;20446;-56
2024/03/08 12:30:20;;;;;;;10.50;9.50;;;23.40;28.30;;;;;;5054061;28;20527;-56
2024/03/08 12:32:50;;;;;;;13.10;12.00;;;23.60;27.60;;;;;;5053999;28;20937;-56
2024/03/08 12:35:17;;;;;;;11.00;10.03;;;23.40;27.00;;;;;;5054350;28;20500;-56
2024/03/08 12:37:44;;;;;;;11.97;10.77;;;23.40;27.50;;;;;;5054271;28;20445;-57
2024/03/08 12:40:16;;;;;;;11.60;10.57;;;23.50;28.30;;;;;;5054280;28;20940;-56